Time;durP1;ratioP1;P1;durP2;ratioP2;P2;SDS_P1;SDS_P2;PMS_P1;PMS_P2;Temp;Humidity;BMP_temperature;BMP_pressure;BME280_temperature;BME280_humidity;BME280_pressure;Samples;Min_cycle;Max_cycle;Signal;HPM_P1;HPM_P2
2022/03/11 00:00:04;;;;;;;17.77;10.55;;;;;;;0.59;100.00;101515.72;5985175;29;20050;-91
2022/03/11 00:03:08;;;;;;;18.60;10.27;;;;;;;0.54;100.00;101511.59;5979422;29;20119;-91
2022/03/11 00:06:10;;;;;;;19.83;10.90;;;;;;;0.51;100.00;101507.41;5978899;29;20047;-91
2022/03/11 00:09:12;;;;;;;18.02;10.70;;;;;;;0.49;100.00;101508.31;5985767;29;20042;-90
2022/03/11 00:12:14;;;;;;;18.77;10.15;;;;;;;0.42;100.00;101507.59;5979155;29;20138;-91
2022/03/11 00:15:16;;;;;;;16.15;9.50;;;;;;;0.39;100.00;101507.66;5983585;29;20231;-91
2022/03/11 00:18:21;;;;;;;19.40;10.68;;;;;;;0.47;100.00;101507.50;5980314;29;20701;-91
2022/03/11 00:21:23;;;;;;;20.35;10.90;;;;;;;0.36;100.00;101505.19;5978629;29;20046;-90
2022/03/11 00:24:25;;;;;;;17.55;9.35;;;;;;;0.33;100.00;101502.72;5982035;29;20055;-90
2022/03/11 00:27:28;;;;;;;16.17;9.75;;;;;;;0.26;100.00;101501.16;5961789;29;20054;-91
2022/03/11 00:30:30;;;;;;;15.90;9.38;;;;;;;0.19;100.00;101513.16;5981604;29;20050;-90
2022/03/11 00:33:32;;;;;;;18.75;10.07;;;;;;;0.17;100.00;101514.91;5981938;29;20050;-90
2022/03/11 00:36:34;;;;;;;21.02;10.48;;;;;;;0.10;100.00;101503.16;5962732;29;20046;-91
2022/03/11 00:39:36;;;;;;;17.40;10.00;;;;;;;0.05;100.00;101504.97;5987294;29;20137;-90
2022/03/11 00:42:38;;;;;;;19.20;9.52;;;;;;;0.16;100.00;101508.97;5985540;29;20449;-91
2022/03/11 00:45:40;;;;;;;16.98;9.60;;;;;;;0.10;100.00;101506.56;5982367;29;20065;-91
2022/03/11 00:48:42;;;;;;;22.90;10.40;;;;;;;0.07;100.00;101506.59;5990726;29;20058;-91
2022/03/11 00:51:47;;;;;;;17.25;9.73;;;;;;;0.06;100.00;101510.03;5982848;29;20422;-90
2022/03/11 00:54:49;;;;;;;17.75;9.77;;;;;;;-0.04;100.00;101508.53;5982305;29;20042;-90
2022/03/11 00:57:52;;;;;;;17.52;9.48;;;;;;;-0.07;100.00;101506.88;5981098;29;20054;-91
2022/03/11 01:00:54;;;;;;;18.55;9.60;;;;;;;-0.03;100.00;101493.22;5981229;29;20083;-91
2022/03/11 01:03:56;;;;;;;18.52;9.55;;;;;;;-0.02;100.00;101494.09;5979926;29;20113;-91
2022/03/11 01:06:58;;;;;;;18.73;10.10;;;;;;;-0.01;100.00;101494.03;5975687;29;20050;-91
2022/03/11 01:10:00;;;;;;;18.67;10.10;;;;;;;0.03;100.00;101506.72;5981169;29;20049;-91
2022/03/11 01:13:05;;;;;;;19.85;10.30;;;;;;;0.04;100.00;101490.56;5969494;29;20046;-89
2022/03/11 01:16:07;;;;;;;20.15;10.73;;;;;;;0.14;100.00;101492.06;5975412;29;20046;-90
2022/03/11 01:19:09;;;;;;;17.70;9.65;;;;;;;-0.01;100.00;101495.75;5997294;29;20367;-90
2022/03/11 01:22:11;;;;;;;20.38;10.40;;;;;;;-0.06;100.00;101505.19;5988084;29;20053;-90
2022/03/11 01:25:13;;;;;;;19.42;9.68;;;;;;;-0.07;100.00;101506.88;5983178;29;20378;-90
2022/03/11 01:28:15;;;;;;;20.40;10.05;;;;;;;-0.21;100.00;101498.66;5982022;29;20046;-90
2022/03/11 01:31:18;;;;;;;18.10;9.18;;;;;;;-0.26;100.00;101500.47;5958218;29;20054;-90
2022/03/11 01:34:20;;;;;;;18.77;9.15;;;;;;;-0.31;100.00;101499.72;5977687;29;20050;-90
2022/03/11 01:37:23;;;;;;;17.42;9.32;;;;;;;-0.33;100.00;101496.34;5978585;29;20070;-90
2022/03/11 01:40:25;;;;;;;20.70;10.23;;;;;;;-0.42;100.00;101497.38;5983203;29;20515;-90
2022/03/11 01:44:01;;;;;;;16.00;8.55;;;;;;;-0.47;100.00;101492.34;5978560;29;20046;-90
2022/03/11 01:47:17;;;;;;;15.85;8.82;;;;;;;-0.51;100.00;101489.88;5959035;29;20094;-90
2022/03/11 01:50:19;;;;;;;18.10;9.43;;;;;;;-0.53;100.00;101489.91;5983555;29;20046;-90
2022/03/11 01:53:21;;;;;;;19.45;8.50;;;;;;;-0.55;100.00;101480.63;5985866;29;20046;-90
2022/03/11 01:56:24;;;;;;;16.25;9.15;;;;;;;-0.62;100.00;101485.00;5976383;29;20164;-90
2022/03/11 01:59:27;;;;;;;20.17;9.55;;;;;;;-0.61;100.00;101476.50;5989505;29;20057;-90
2022/03/11 02:02:28;;;;;;;17.55;9.45;;;;;;;-0.62;100.00;101476.50;5964900;29;20061;-90
2022/03/11 02:05:31;;;;;;;17.00;9.10;;;;;;;-0.58;100.00;101473.06;5965359;29;20042;-90
2022/03/11 02:08:34;;;;;;;18.58;9.55;;;;;;;-0.63;100.00;101473.13;5983478;29;20030;-90
2022/03/11 02:11:36;;;;;;;16.42;8.48;;;;;;;-0.69;100.00;101469.00;5981172;29;20061;-90
2022/03/11 02:14:38;;;;;;;16.50;8.68;;;;;;;-0.76;100.00;101467.44;5984234;29;20053;-90
2022/03/11 02:17:40;;;;;;;19.08;9.10;;;;;;;-0.78;100.00;101458.97;5983053;29;20054;-90
2022/03/11 02:20:53;;;;;;;17.13;8.68;;;;;;;-0.74;100.00;101459.78;5955343;29;20042;-90
2022/03/11 02:24:01;;;;;;;18.38;9.20;;;;;;;-0.76;100.00;101459.81;5971517;29;20125;-90
2022/03/11 02:27:04;;;;;;;17.15;9.23;;;;;;;-0.78;100.00;101466.59;5984654;29;20054;-90
2022/03/11 02:30:17;;;;;;;20.55;8.60;;;;;;;-0.82;100.00;101461.59;5983752;29;20057;-90
2022/03/11 02:33:20;;;;;;;18.10;9.13;;;;;;;-0.80;100.00;101465.78;5965034;29;20050;-90
2022/03/11 02:36:22;;;;;;;17.67;8.32;;;;;;;-0.86;100.00;101460.81;5963160;29;20121;-90
2022/03/11 02:39:24;;;;;;;17.92;8.80;;;;;;;-0.79;100.00;101456.47;5978203;29;20389;-90
2022/03/11 02:42:26;;;;;;;13.68;8.20;;;;;;;-0.78;100.00;101466.59;5983481;29;20721;-89
2022/03/11 02:45:28;;;;;;;18.02;8.35;;;;;;;-0.83;100.00;101470.94;5979012;29;20045;-90
2022/03/11 02:48:30;;;;;;;17.23;8.98;;;;;;;-0.91;100.00;101465.13;5975402;29;20513;-90
2022/03/11 02:51:32;;;;;;;13.10;7.78;;;;;;;-0.95;100.00;101466.03;5979138;29;20070;-90
2022/03/11 02:54:34;;;;;;;19.23;8.43;;;;;;;-0.92;100.00;101465.97;5977345;29;20054;-90
2022/03/11 02:57:36;;;;;;;20.92;9.35;;;;;;;-0.98;100.00;101461.03;5979524;29;20061;-90
2022/03/11 03:00:39;;;;;;;15.63;9.27;;;;;;;-0.97;100.00;101455.06;5963576;29;20157;-90
2022/03/11 03:03:54;;;;;;;16.42;8.32;;;;;;;-1.02;100.00;101450.03;5980150;29;20070;-90
2022/03/11 03:06:58;;;;;;;15.20;8.00;;;;;;;-1.01;100.00;101440.75;5974113;29;20552;-90
2022/03/11 03:10:00;;;;;;;14.25;8.60;;;;;;;-1.05;100.00;101441.66;5981870;29;20050;-90
2022/03/11 03:13:02;;;;;;;16.30;7.82;;;;;;;-1.14;100.00;101432.50;5980695;29;20428;-90
2022/03/11 03:16:06;;;;;;;18.63;8.77;;;;;;;-1.08;100.00;101422.22;5963724;29;20355;-90
2022/03/11 03:19:08;;;;;;;15.63;7.57;;;;;;;-0.98;100.00;101423.72;5979118;29;20644;-90
2022/03/11 03:22:11;;;;;;;15.73;8.43;;;;;;;-0.98;100.00;101422.91;5979569;29;20050;-90
2022/03/11 03:25:16;;;;;;;16.25;8.43;;;;;;;-1.11;100.00;101425.63;5984130;29;20500;-89
2022/03/11 03:28:18;;;;;;;15.30;7.63;;;;;;;-1.13;100.00;101429.91;5977281;29;20069;-90
2022/03/11 03:31:21;;;;;;;15.68;8.40;;;;;;;-1.15;100.00;101425.72;5977005;29;20183;-89
2022/03/11 03:34:34;;;;;;;17.17;8.80;;;;;;;-1.22;100.00;101422.41;5979466;29;20038;-89
2022/03/11 03:37:36;;;;;;;15.75;8.20;;;;;;;-1.24;100.00;101421.63;5960562;29;20568;-90
2022/03/11 03:40:38;;;;;;;14.60;8.07;;;;;;;-1.22;100.00;101417.34;5976187;29;20064;-90
2022/03/11 03:43:54;;;;;;;17.35;8.32;;;;;;;-1.30;100.00;101419.16;5981137;29;20042;-92
2022/03/11 03:46:56;;;;;;;17.90;8.63;;;;;;;-1.34;100.00;101420.09;5980213;29;20544;-90
2022/03/11 03:49:59;;;;;;;14.45;7.35;;;;;;;-1.33;100.00;101414.97;5962117;29;20050;-90
2022/03/11 03:53:01;;;;;;;16.73;8.20;;;;;;;-1.39;100.00;101409.13;5979958;29;20067;-90
2022/03/11 03:56:03;;;;;;;18.67;9.20;;;;;;;-1.42;100.00;101412.56;5979577;29;20042;-90
2022/03/11 03:59:18;;;;;;;15.63;8.05;;;;;;;-1.34;100.00;101412.47;5973990;29;20104;-90
2022/03/11 04:02:20;;;;;;;12.43;7.40;;;;;;;-1.24;100.00;101411.47;5979907;29;20061;-90
2022/03/11 04:05:22;;;;;;;14.88;8.65;;;;;;;-1.27;100.00;101403.88;5983300;29;20494;-90
2022/03/11 04:08:27;;;;;;;14.98;7.78;;;;;;;-1.36;100.00;101393.88;5982356;29;20062;-90
2022/03/11 04:11:29;;;;;;;14.52;8.50;;;;;;;-1.39;100.00;101391.38;5980794;29;20491;-89
2022/03/11 04:14:31;;;;;;;15.00;8.48;;;;;;;-1.37;100.00;101387.94;5965387;29;20061;-90
2022/03/11 04:17:33;;;;;;;16.95;8.27;;;;;;;-1.44;100.00;101388.06;5979916;29;20093;-90
2022/03/11 04:20:36;;;;;;;15.07;8.07;;;;;;;-1.44;100.00;101370.28;5962569;29;20054;-90
2022/03/11 04:23:38;;;;;;;15.57;8.40;;;;;;;-1.47;100.00;101385.56;5977099;29;20106;-90
2022/03/11 04:26:46;;;;;;;12.85;8.50;;;;;;;-1.38;100.00;101376.13;5976453;29;20113;-90
2022/03/11 04:29:48;;;;;;;18.30;7.85;;;;;;;-1.39;100.00;101377.00;5978656;29;20046;-90
2022/03/11 04:32:53;;;;;;;13.90;7.70;;;;;;;-1.50;100.00;101365.31;5973616;29;20527;-90
2022/03/11 04:35:55;;;;;;;16.30;8.07;;;;;;;-1.43;100.00;101366.91;5981747;29;20042;-90
2022/03/11 04:38:57;;;;;;;14.77;7.72;;;;;;;-1.37;100.00;101356.63;5969895;29;20106;-90
2022/03/11 04:41:59;;;;;;;16.45;8.55;;;;;;;-1.44;100.00;101357.59;5976218;29;20504;-90
2022/03/11 04:45:06;;;;;;;16.55;7.85;;;;;;;-1.35;100.00;101360.81;5977211;29;20179;-90
2022/03/11 04:48:08;;;;;;;16.98;8.43;;;;;;;-1.44;100.00;101355.91;5960059;29;20054;-90
2022/03/11 04:51:10;;;;;;;13.68;7.95;;;;;;;-1.34;100.00;101349.00;5965408;29;20057;-90
2022/03/11 04:54:12;;;;;;;15.98;7.80;;;;;;;-1.40;100.00;101347.38;5976890;29;20077;-90
2022/03/11 04:57:15;;;;;;;13.63;7.95;;;;;;;-1.39;100.00;101348.19;5977765;29;20179;-90
2022/03/11 05:00:17;;;;;;;12.88;7.65;;;;;;;-1.24;100.00;101347.97;5983932;29;20092;-90
2022/03/11 05:03:19;;;;;;;13.25;7.53;;;;;;;-1.46;100.00;101347.47;5963567;29;20065;-90
2022/03/11 05:06:23;;;;;;;14.48;7.82;;;;;;;-1.43;100.00;101354.22;5981844;29;20762;-89
2022/03/11 05:09:25;;;;;;;15.25;7.78;;;;;;;-1.34;100.00;101357.44;5970372;29;20054;-90
2022/03/11 05:12:27;;;;;;;13.20;7.50;;;;;;;-1.35;100.00;101358.28;5981835;29;20082;-90
2022/03/11 05:15:38;;;;;;;14.45;7.78;;;;;;;-1.41;100.00;101355.03;5965273;29;20050;-90
2022/03/11 05:18:40;;;;;;;14.35;7.47;;;;;;;-1.52;100.00;101360.25;5964637;29;20078;-90
2022/03/11 05:21:42;;;;;;;15.13;7.68;;;;;;;-1.47;100.00;101355.09;5977570;29;20084;-89
2022/03/11 05:24:44;;;;;;;13.40;7.70;;;;;;;-1.58;100.00;101356.13;5969338;29;20535;-90
2022/03/11 05:27:47;;;;;;;17.35;8.00;;;;;;;-1.64;100.00;101368.91;5976830;29;20833;-89
2022/03/11 05:30:49;;;;;;;16.50;8.52;;;;;;;-1.57;100.00;101362.84;5978966;29;20054;-90
2022/03/11 05:33:51;;;;;;;14.13;7.78;;;;;;;-1.70;100.00;101363.09;5975877;29;20697;-89
2022/03/11 05:36:53;;;;;;;13.88;7.88;;;;;;;-1.80;100.00;101370.00;5966044;29;20053;-89
2022/03/11 05:39:55;;;;;;;13.93;7.30;;;;;;;-1.83;100.00;101370.88;5976619;29;20453;-90
2022/03/11 05:42:57;;;;;;;18.35;7.68;;;;;;;-1.73;100.00;101367.34;5941006;29;20058;-90
2022/03/11 05:45:59;;;;;;;15.35;7.05;;;;;;;-1.77;100.00;101372.47;5976431;29;20469;-89
2022/03/11 05:49:01;;;;;;;16.10;7.50;;;;;;;-1.76;100.00;101364.03;5981630;29;20573;-89
2022/03/11 05:52:04;;;;;;;14.05;7.43;;;;;;;-1.76;100.00;101367.38;5975560;29;20051;-90
2022/03/11 05:55:07;;;;;;;18.27;9.25;;;;;;;-1.67;100.00;101368.94;5976996;29;20080;-89
2022/03/11 05:58:10;;;;;;;17.55;8.18;;;;;;;-1.64;100.00;101368.91;5976722;29;20103;-89
2022/03/11 06:01:12;;;;;;;16.90;7.60;;;;;;;-1.71;100.00;101371.53;5978529;29;20496;-89
2022/03/11 06:04:14;;;;;;;17.13;8.50;;;;;;;-1.68;100.00;101367.28;5976411;29;20046;-90
2022/03/11 06:07:17;;;;;;;15.88;8.70;;;;;;;-1.68;100.00;101377.44;5977191;29;20046;-89
2022/03/11 06:10:19;;;;;;;15.38;8.18;;;;;;;-1.65;100.00;101376.53;5960989;29;20420;-89
2022/03/11 06:13:21;;;;;;;17.17;7.55;;;;;;;-1.65;100.00;101387.53;5978881;29;20043;-89
2022/03/11 06:16:23;;;;;;;15.82;7.95;;;;;;;-1.66;100.00;101380.78;5975872;29;20039;-89
2022/03/11 06:19:27;;;;;;;14.95;7.68;;;;;;;-1.63;100.00;101383.28;5960508;29;20061;-89
2022/03/11 06:22:29;;;;;;;15.23;7.88;;;;;;;-1.64;100.00;101378.22;5961509;29;20063;-89
2022/03/11 06:25:32;;;;;;;17.00;8.50;;;;;;;-1.57;100.00;101388.25;5979502;29;20046;-89
2022/03/11 06:28:34;;;;;;;14.18;7.80;;;;;;;-1.47;100.00;101390.66;5960911;29;20173;-89
2022/03/11 06:31:37;;;;;;;17.05;8.02;;;;;;;-1.52;100.00;101394.13;5974457;29;20197;-89
2022/03/11 06:34:40;;;;;;;19.85;9.07;;;;;;;-1.53;100.00;101386.50;5963750;29;20484;-89
2022/03/11 06:37:43;;;;;;;15.95;8.95;;;;;;;-1.37;100.00;101398.09;5977309;29;20042;-89
2022/03/11 06:40:45;;;;;;;15.60;7.85;;;;;;;-1.41;100.00;101400.72;5977467;29;20045;-90
2022/03/11 06:43:47;;;;;;;16.15;8.02;;;;;;;-1.40;100.00;101407.47;5978987;29;20535;-89
2022/03/11 06:46:53;;;;;;;16.10;8.63;;;;;;;-1.36;100.00;101393.88;5978262;29;20050;-89
2022/03/11 06:49:55;;;;;;;12.73;7.70;;;;;;;-1.27;100.00;101406.41;5967964;29;20125;-89
2022/03/11 06:52:57;;;;;;;14.95;8.23;;;;;;;-1.24;100.00;101403.00;5970872;29;20055;-89
2022/03/11 06:56:02;;;;;;;16.73;8.07;;;;;;;-1.24;100.00;101405.53;5977678;29;20106;-89
2022/03/11 06:59:04;;;;;;;15.32;7.60;;;;;;;-1.26;100.00;101400.50;5979827;29;20403;-90
2022/03/11 07:02:06;;;;;;;15.30;7.72;;;;;;;-1.27;100.00;101408.94;5976315;29;20054;-89
2022/03/11 07:05:15;;;;;;;15.63;8.13;;;;;;;-1.22;100.00;101412.25;5976552;29;20500;-89
2022/03/11 07:08:17;;;;;;;13.60;7.68;;;;;;;-1.09;100.00;101415.47;5977831;29;20061;-90
2022/03/11 07:11:19;;;;;;;16.33;7.93;;;;;;;-1.08;100.00;101406.97;5979178;29;20077;-89
2022/03/11 07:14:21;;;;;;;18.73;8.20;;;;;;;-1.05;100.00;101414.53;5978219;29;20054;-90
2022/03/11 07:17:23;;;;;;;13.85;8.27;;;;;;;-0.97;100.00;101412.72;5948941;29;20137;-89
2022/03/11 07:20:25;;;;;;;16.02;8.20;;;;;;;-0.98;100.00;101410.19;5961401;29;20394;-89
2022/03/11 07:24:01;;;;;;;14.23;7.65;;;;;;;-0.95;100.00;101412.69;5974533;29;20058;-90
2022/03/11 07:27:03;;;;;;;14.75;7.72;;;;;;;-0.94;100.00;101401.66;5962608;29;20074;-90
2022/03/11 07:30:06;;;;;;;12.35;7.15;;;;;;;-0.75;100.00;101402.16;5963207;29;20054;-89
2022/03/11 07:33:11;;;;;;;17.20;8.52;;;;;;;-0.69;100.00;101407.16;5944661;29;20743;-90
2022/03/11 07:36:13;;;;;;;12.77;7.93;;;;;;;-0.61;100.00;101400.22;5981083;29;20042;-90
2022/03/11 07:39:15;;;;;;;14.20;7.45;;;;;;;-0.59;100.00;101401.03;5976412;29;20046;-90
2022/03/11 07:42:17;;;;;;;15.18;7.97;;;;;;;-0.44;100.00;101400.75;5980052;29;20038;-90
2022/03/11 07:45:20;;;;;;;14.13;7.07;;;;;;;-0.43;100.00;101399.03;5975011;29;20034;-90
2022/03/11 07:48:22;;;;;;;13.50;8.20;;;;;;;-0.40;100.00;101398.13;5961672;29;20565;-90
2022/03/11 07:51:27;;;;;;;13.68;7.43;;;;;;;-0.43;100.00;101401.56;5977408;29;20078;-89
2022/03/11 07:54:29;;;;;;;16.67;7.28;;;;;;;-0.35;100.00;101412.44;5976696;29;20042;-90
2022/03/11 07:57:32;;;;;;;15.23;7.47;;;;;;;-0.27;99.82;101405.50;5977170;29;20835;-90
2022/03/11 08:01:10;;;;;;;12.98;7.55;;;;;;;-0.24;99.01;101407.97;5960416;29;20519;-90
2022/03/11 08:10:19;;;;;;;13.00;6.95;;;;;;;0.04;94.78;101407.41;5994660;29;20077;-90
2022/03/11 08:18:26;;;;;;;12.23;6.75;;;;;;;0.19;92.68;101391.81;5976572;29;20058;-90
2022/03/11 08:27:24;;;;;;;16.17;7.10;;;;;;;0.26;92.82;101379.78;5969087;29;20046;-90
2022/03/11 08:40:29;;;;;;;11.63;6.97;;;;;;;0.43;92.10;101379.41;5977993;29;20133;-90
2022/03/11 08:58:34;;;;;;;12.80;6.55;;;;;;;0.97;82.58;101376.41;5973885;29;20058;-91
2022/03/11 09:06:22;;;;;;;10.90;7.13;;;;;;;1.12;79.50;101367.53;5978581;29;20054;-90
2022/03/11 09:10:29;;;;;;;12.40;6.57;;;;;;;1.19;81.14;101355.44;5963974;29;20579;-91
2022/03/11 09:14:18;;;;;;;11.00;6.38;;;;;;;1.22;79.71;101356.19;5973837;29;20057;-91
2022/03/11 09:17:20;;;;;;;15.02;7.22;;;;;;;1.32;76.76;101350.84;5958836;29;20061;-91
2022/03/11 09:20:27;;;;;;;13.48;6.85;;;;;;;1.33;79.95;101355.06;5972418;29;20046;-91
2022/03/11 09:23:33;;;;;;;15.13;6.95;;;;;;;1.40;79.20;101346.38;5976529;29;20069;-91
2022/03/11 09:26:36;;;;;;;11.52;7.05;;;;;;;1.51;77.92;101337.53;5961382;29;20489;-91
2022/03/11 09:29:55;;;;;;;10.60;6.57;;;;;;;1.79;74.15;101343.56;5959179;29;20149;-91
2022/03/11 09:32:58;;;;;;;10.98;6.88;;;;;;;1.91;73.01;101349.16;5978312;29;20144;-91
2022/03/11 09:36:00;;;;;;;12.23;6.75;;;;;;;1.97;73.57;101342.19;5977142;29;20520;-91
2022/03/11 09:39:05;;;;;;;9.75;6.25;;;;;;;1.89;74.74;101335.59;5978419;29;20046;-91
2022/03/11 09:42:09;;;;;;;10.32;6.28;;;;;;;2.01;71.67;101336.94;5980223;29;20855;-91
2022/03/11 09:45:11;;;;;;;9.57;5.75;;;;;;;2.17;71.68;101334.75;5983367;29;20171;-89
2022/03/11 09:48:17;;;;;;;10.68;6.22;;;;;;;2.17;72.54;101327.09;5981316;29;20046;-92
2022/03/11 09:51:20;;;;;;;11.80;6.53;;;;;;;2.30;69.17;101335.22;5974527;29;20054;-92
2022/03/11 09:54:23;;;;;;;8.23;5.60;;;;;;;2.48;70.36;101333.78;5990271;29;20049;-91
2022/03/11 09:57:27;;;;;;;12.77;6.18;;;;;;;2.57;65.93;101333.50;6003985;29;20087;-92
2022/03/11 10:00:30;;;;;;;13.02;6.32;;;;;;;2.73;65.31;101326.16;5988501;29;20056;-92
2022/03/11 10:03:33;;;;;;;10.77;5.68;;;;;;;2.71;66.15;101318.53;5996061;29;20050;-92
2022/03/11 10:06:47;;;;;;;12.70;6.00;;;;;;;2.75;64.79;101321.81;5970556;29;20057;-92
2022/03/11 10:09:52;;;;;;;12.27;5.72;;;;;;;2.99;65.10;101320.16;5998304;29;20038;-92
2022/03/11 10:12:57;;;;;;;10.10;5.40;;;;;;;3.31;63.92;101323.31;6007336;29;20049;-92
2022/03/11 10:16:29;;;;;;;11.48;5.82;;;;;;;3.45;61.80;101316.81;5996062;29;20066;-92
2022/03/11 10:20:02;;;;;;;11.18;6.28;;;;;;;3.52;59.45;101314.84;6004472;29;20093;-92
2022/03/11 10:23:10;;;;;;;10.82;5.90;;;;;;;3.52;59.52;101314.00;6031421;29;20348;-92
2022/03/11 10:26:55;;;;;;;10.30;5.75;;;;;;;3.65;58.66;101308.41;6075864;24;20113;-92
2022/03/11 10:30:26;;;;;;;10.87;5.97;;;;;;;3.74;57.65;101308.94;6574225;23;20065;-92
2022/03/11 10:33:30;;;;;;;10.50;5.85;;;;;;;3.76;59.10;101302.03;6045987;29;20038;-92
2022/03/11 10:37:15;;;;;;;13.45;5.72;;;;;;;3.97;55.87;101292.66;6035645;23;20230;-93
2022/03/11 10:40:56;;;;;;;11.85;5.78;;;;;;;4.01;56.14;101287.38;6037261;29;20049;-92
2022/03/11 10:44:26;;;;;;;11.55;5.63;;;;;;;4.15;54.73;101289.41;6315669;23;20187;31
2022/03/11 10:47:41;;;;;;;11.40;5.22;;;;;;;4.31;53.98;101284.47;6775258;23;20113;-92
2022/03/11 11:13:26;;;;;;;9.20;5.20;;;;;;;4.92;51.50;101248.56;1096908;23;20336;31
2022/03/11 12:53:47;;;;;;;10.15;5.47;;;;;;;7.72;42.33;101123.94;7358899;23;20040;31
2022/03/11 13:00:58;;;;;;;13.15;5.70;;;;;;;7.87;42.97;101120.47;7318522;23;20158;-93
2022/03/11 13:14:22;;;;;;;11.93;5.75;;;;;;;8.32;42.11;101107.53;6014204;29;20056;-93
2022/03/11 13:17:52;;;;;;;9.70;5.60;;;;;;;8.41;41.58;101104.44;6005709;29;20093;-93
2022/03/11 13:21:22;;;;;;;;;;;;;;;;;;;;;
2022/03/11 13:24:39;;;;;;;9.07;5.20;;;;;;;8.73;40.20;101084.41;6157976;23;20066;31
2022/03/11 13:27:41;;;;;;;9.25;5.40;;;;;;;8.81;41.20;101087.31;6297100;23;20071;-93
2022/03/11 13:31:36;;;;;;;8.57;5.18;;;;;;;8.95;41.19;101093.41;6403739;23;20055;-94
2022/03/11 13:35:11;;;;;;;11.80;5.85;;;;;;;9.00;39.40;101086.19;6185323;23;20443;-94
2022/03/11 13:38:59;;;;;;;10.50;5.55;;;;;;;9.02;39.78;101082.59;5999105;29;20106;-95
2022/03/11 13:42:05;;;;;;;9.35;5.45;;;;;;;9.18;39.39;101066.94;6016581;29;20129;-94
2022/03/11 13:45:36;;;;;;;11.25;5.18;;;;;;;9.20;37.97;101070.25;5998964;29;20057;-94
2022/03/11 13:53:04;;;;;;;12.20;6.07;;;;;;;9.25;39.96;101060.44;6452450;23;20057;-95
2022/03/11 13:56:27;;;;;;;12.38;6.53;;;;;;;9.35;39.77;101059.84;6013446;29;20034;-94
2022/03/11 13:59:54;;;;;;;12.73;5.88;;;;;;;9.45;37.89;101061.72;6023871;29;20030;-95
2022/03/11 14:03:19;;;;;;;11.00;5.40;;;;;;;9.60;37.07;101057.28;6669072;23;20072;-94
2022/03/11 14:06:35;;;;;;;10.40;5.70;;;;;;;9.58;36.38;101058.34;6215833;23;20886;-94
2022/03/11 14:10:06;;;;;;;7.78;4.93;;;;;;;9.63;38.59;101051.91;6020675;29;20085;-95
2022/03/11 14:20:44;;;;;;;;;;;;;;;;;;;;;
2022/03/11 14:23:53;;;;;;;12.07;5.32;;;;;;;9.75;38.05;101047.69;5991192;29;20038;-92
2022/03/11 14:27:15;;;;;;;9.07;5.95;;;;;;;9.91;37.44;101057.81;6644360;23;20116;31
2022/03/11 14:30:38;;;;;;;8.13;5.18;;;;;;;9.92;36.82;101036.22;6348294;23;20097;-93
2022/03/11 14:34:03;;;;;;;13.68;5.57;;;;;;;9.88;36.71;101037.34;6274945;23;20042;-93
2022/03/11 14:37:14;;;;;;;9.18;5.68;;;;;;;9.88;36.13;101025.25;6727679;23;20033;-93
2022/03/11 16:51:48;;;;;;;;;;;;;;;;;;;;;
2022/03/11 18:11:19;;;;;;;12.82;6.38;;;;;;;3.84;49.59;101033.69;7250664;23;20024;31
2022/03/11 18:14:38;;;;;;;12.13;7.00;;;;;;;3.62;50.49;101018.41;3458498;23;20198;31
2022/03/11 18:17:42;;;;;;;11.77;6.53;;;;;;;3.66;50.55;101025.06;6097732;23;20037;-92
2022/03/11 18:21:17;;;;;;;9.40;6.05;;;;;;;3.73;49.79;101031.59;6104700;23;20069;-92
2022/03/11 18:24:43;;;;;;;13.10;6.68;;;;;;;3.86;50.03;101042.13;6074754;23;20057;-91
2022/03/11 18:28:07;;;;;;;12.35;6.10;;;;;;;3.70;50.06;101041.09;6118629;23;20057;-91
2022/03/11 18:31:10;;;;;;;12.45;7.38;;;;;;;3.57;50.58;101035.66;6019394;29;20070;-92
2022/03/11 18:34:41;;;;;;;16.63;6.35;;;;;;;3.54;50.46;101035.81;6039145;29;20046;-92
2022/03/11 18:38:01;;;;;;;11.05;6.50;;;;;;;3.57;50.79;101040.78;6045389;24;20041;-92
2022/03/11 18:41:11;;;;;;;10.73;6.00;;;;;;;3.47;50.34;101047.19;5976127;29;20050;-92
2022/03/11 18:44:35;;;;;;;13.13;6.22;;;;;;;3.41;50.95;101053.41;6002122;29;20043;-92
2022/03/11 18:47:52;;;;;;;11.85;6.18;;;;;;;3.44;51.09;101054.09;5995286;29;20030;-92
2022/03/11 18:50:56;;;;;;;11.35;6.28;;;;;;;3.38;51.58;101046.69;5990046;29;20041;-92
2022/03/11 18:54:02;;;;;;;9.00;5.60;;;;;;;3.19;52.16;101045.75;5993914;29;20050;-92
2022/03/11 18:57:10;;;;;;;9.77;6.28;;;;;;;3.06;52.45;101050.53;6034089;29;20041;-92
2022/03/11 19:00:29;;;;;;;11.52;5.97;;;;;;;3.11;52.66;101056.28;6029741;29;20069;-92
2022/03/11 19:03:42;;;;;;;11.60;6.07;;;;;;;2.91;53.46;101061.34;6040068;29;20052;-92
2022/03/11 19:07:26;;;;;;;10.23;6.07;;;;;;;2.72;54.88;101051.81;6012379;29;20070;-92
2022/03/11 19:10:31;;;;;;;15.45;5.90;;;;;;;2.69;54.47;101056.22;5997105;29;20042;-92
2022/03/11 19:13:39;;;;;;;11.68;6.28;;;;;;;2.78;55.40;101058.41;6010861;29;20066;-92
2022/03/11 19:16:52;;;;;;;10.52;6.45;;;;;;;2.54;55.90;101062.72;6001438;29;20050;-92
2022/03/11 19:19:54;;;;;;;10.23;6.30;;;;;;;2.38;56.89;101049.66;5999262;29;20468;-92
2022/03/11 19:23:04;;;;;;;8.82;6.35;;;;;;;2.33;57.21;101059.22;6012678;29;20335;-91
2022/03/11 19:26:08;;;;;;;11.43;6.00;;;;;;;2.35;55.68;101065.94;5998514;29;20050;-92
2022/03/11 19:29:10;;;;;;;11.00;6.47;;;;;;;2.37;57.03;101069.28;5999932;29;20739;-91
2022/03/11 19:32:15;;;;;;;9.18;5.57;;;;;;;2.27;56.68;101070.50;5992418;29;20053;-91
2022/03/11 19:35:21;;;;;;;9.02;5.65;;;;;;;2.30;56.35;101075.50;5995151;29;20156;-91
2022/03/11 19:38:24;;;;;;;8.65;6.20;;;;;;;2.24;57.24;101070.63;5991887;29;20547;-91
2022/03/11 19:41:29;;;;;;;8.05;5.85;;;;;;;2.13;57.25;101072.69;5977680;29;20153;-91
2022/03/11 19:44:34;;;;;;;10.00;6.10;;;;;;;2.15;56.20;101076.88;5994137;29;20050;-92
2022/03/11 19:47:36;;;;;;;15.43;7.05;;;;;;;2.17;56.44;101070.88;5992405;29;20042;-91
2022/03/11 19:50:40;;;;;;;10.68;5.80;;;;;;;2.03;56.07;101071.34;5998619;29;20486;-91
2022/03/11 19:53:50;;;;;;;8.27;5.63;;;;;;;1.96;57.83;101064.78;5990778;29;20123;-91
2022/03/11 19:56:54;;;;;;;15.07;6.75;;;;;;;1.88;58.58;101057.41;5994605;29;20124;-91
2022/03/11 19:59:57;;;;;;;13.27;6.18;;;;;;;1.83;57.87;101067.75;5992552;29;20567;-91
2022/03/11 20:02:59;;;;;;;10.98;5.38;;;;;;;1.81;58.22;101063.59;5986543;29;20198;-91
2022/03/11 20:06:01;;;;;;;9.57;5.90;;;;;;;1.88;59.02;101068.44;5975695;29;20047;-91
2022/03/11 20:09:08;;;;;;;10.63;6.10;;;;;;;1.84;58.34;101079.66;5986290;29;20535;-91
2022/03/11 20:12:25;;;;;;;11.82;6.40;;;;;;;1.73;60.06;101074.06;5985181;29;20416;-91
2022/03/11 20:15:35;;;;;;;11.20;6.32;;;;;;;1.76;59.80;101073.13;5984355;29;20046;-91
2022/03/11 20:18:39;;;;;;;11.63;6.00;;;;;;;1.72;58.18;101070.69;5955231;29;20507;-91
2022/03/11 20:21:42;;;;;;;11.05;6.07;;;;;;;1.60;58.83;101078.75;5981010;29;20074;-91
2022/03/11 20:24:45;;;;;;;9.38;6.07;;;;;;;1.60;58.79;101073.63;5983408;29;20655;-91
2022/03/11 20:27:47;;;;;;;13.70;5.60;;;;;;;1.61;60.63;101077.84;5982993;29;20051;-91
2022/03/11 20:30:50;;;;;;;8.90;5.63;;;;;;;1.55;60.15;101085.72;5983543;29;20035;-91
2022/03/11 20:33:52;;;;;;;11.20;6.40;;;;;;;1.46;59.69;101078.34;5967051;29;20058;-91
2022/03/11 20:36:58;;;;;;;12.15;6.28;;;;;;;1.42;60.31;101069.97;5972795;29;20042;-91
2022/03/11 20:40:07;;;;;;;10.60;5.97;;;;;;;1.53;60.17;101066.25;5979541;29;20126;-91
2022/03/11 20:43:09;;;;;;;10.65;6.00;;;;;;;1.50;59.76;101073.09;5988319;29;20753;-91
2022/03/11 20:46:11;;;;;;;10.63;5.75;;;;;;;1.44;59.43;101068.22;5984910;29;20408;-91
2022/03/11 20:49:14;;;;;;;9.75;5.72;;;;;;;1.39;59.78;101070.09;5981086;29;20040;-91
2022/03/11 20:52:16;;;;;;;12.32;6.03;;;;;;;1.45;58.38;101064.78;5979908;29;20047;-91
2022/03/11 20:55:18;;;;;;;12.18;6.78;;;;;;;1.41;58.47;101068.28;5980180;29;20048;-91
2022/03/11 20:58:24;;;;;;;12.60;6.15;;;;;;;1.34;60.39;101071.91;5979037;29;20102;-91
2022/03/11 21:01:26;;;;;;;13.35;6.20;;;;;;;1.30;60.57;101080.56;5980292;29;20658;-91
2022/03/11 21:04:30;;;;;;;11.40;6.05;;;;;;;1.24;60.58;101073.09;5981357;29;20058;-91
2022/03/11 21:07:45;;;;;;;12.43;6.47;;;;;;;1.16;60.53;101075.06;5978899;29;20050;-91